Kirkwood, CA (95646)

2:59 PM PDT on September 19, 2014 (GMT -0700)
North Upper Truckee | Change Station
CLOSE
Current Station
Personal Weather Station
Location: South Lake Tahoe, CA
Elevation: 6549 ft
Nearby Weather Stations

Elev 6549 ft 38.86 °N, 120.04 °W | Updated 7 seconds ago

Clear
Clear
72.2 °F
Feels Like 76 °F
N
3.0
Wind Variable Wind from East
Gusts 4.0 mph

Today
High -- | Low -- °F
--% Chance of Precip.
Yesterday
High -- | Low -- °F
Precip. -- in
6:45 AM 7:01 PM
Waning Crescent, 16% visible
Pressure 29.96 in
Visibility 10.0 miles
Clouds Clear
Heat Index 76 °F
Dew Point 41 °F
Humidity 32%
Rainfall 0.00 in
Snow Depth 0 in , 1 in , 1 in
UV 8 out of 12
Pollen 5.90 out of 12
Ozone Good
PM2.5 Moderate
Flu Activity Not available.
METAR KTVL 192053Z AUTO 08007KT 10SM CLR 23/03 A3012 RMK AO2 SLP143 T02330028 58007

More Conditions Fewer Conditions

Pressure 29.96 in
Visibility 10.0 miles
Clouds Clear
Heat Index 76 °F
Dew Point 41 °F
Humidity 32%
Rainfall 0.00 in
Snow Depth 0 in , 1 in , 1 in
UV 8 out of 12
Pollen 5.90 out of 12
Ozone Good
PM2.5 Moderate
Flu Activity Not available.
METAR KTVL 192053Z AUTO 08007KT 10SM CLR 23/03 A3012 RMK AO2 SLP143 T02330028 58007

More Conditions Fewer Conditions

10-Day Weather Forecast

Almanac

Astronomy

Sep. 19, 2014 Rise Set
Actual Time 6:45 AM PDT 7:01 PM PDT
Civil Twilight 6:18 AM PDT 7:28 PM PDT
Nautical Twilight 5:47 AM PDT 7:59 PM PDT
Astronomical Twilight 5:15 AM PDT 8:31 PM PDT
Moon 2:37 AM PDT 4:31 PM PDT
Length of Visible Light 13h 09m
Length of Day
12h 16m
Tomorrow will be 2m 30s shorter.
Waning Crescent, 16% of the Moon is Illuminated
Today
Waning Crescent
Sep 24
New
Oct 1
First Quarter
Oct 8
Full
Oct 15
Last Quarter

Today's Extremes

State Highs State Lows

Community

WunderPhotos

Upload Photos

1,754,703 photos uploaded!

WunderBlogs® & News

By Dr. Jeff Masters
Director of Meteorology, Weather Underground
By Kari Strenfel
Meteorologist, Weather Underground
By Christopher C. Burt
Weather Historian, Weather Underground
September 19, 2014
September 19, 2014
September 19, 2014

Nearby

Air Quality

  Air Quality AQ Index Pollutant
Yesterday Good
OZONE
Current Moderate
PM2.5
Current Good
OZONE

Snow Depth

Station Depth Elevation
Leavitt Meadows 0 in 7200 ft
Summit Meadow 0 in 9122 ft
Adin Mountain 1 in 6200 ft
CSS Lab 1 in 6900 ft

Earthquake Activity

City Distance Mag. Time & Date
Gabbs, Nevada 107 miles 3.3 4:37 AM PDT
2014-09-19
Livermore, California 113 miles 2.6 3:37 AM PDT
2014-09-19
Minimum magnitude displayed is 2.5.

Coastal Water Temperatures

Place Temperature
No Stations Reporting

Nearby Weather Stations